createdAt,value
2019-03-05T00:00:35.565Z,25.90
2019-03-05T00:03:06.904Z,23.92
2019-03-05T00:05:38.481Z,23.47
2019-03-05T00:08:09.907Z,25.40
2019-03-05T00:10:41.564Z,23.32
2019-03-05T00:13:13.114Z,23.92
2019-03-05T00:15:45.337Z,23.70
2019-03-05T00:18:16.836Z,24.12
2019-03-05T00:20:48.387Z,23.35
2019-03-05T00:23:51.384Z,23.07
2019-03-05T00:26:26.317Z,23.30
2019-03-05T00:29:09.952Z,23.60
2019-03-05T00:31:43.968Z,24.72
2019-03-05T00:34:39.889Z,22.95
2019-03-05T00:37:20.454Z,24.80
2019-03-05T00:39:55.282Z,25.02
2019-03-05T00:42:58.828Z,25.25
2019-03-05T00:45:54.503Z,23.52
2019-03-05T00:48:59.541Z,23.67
2019-03-05T00:51:39.944Z,24.05
2019-03-05T00:54:32.361Z,24.72
2019-03-05T00:57:25.151Z,22.83
2019-03-05T01:00:12.239Z,24.27
2019-03-05T01:02:58.987Z,24.80
2019-03-05T01:05:39.747Z,21.05
2019-03-05T01:08:11.349Z,22.48
2019-03-05T01:10:43.211Z,24.67
2019-03-05T01:13:14.465Z,23.60
2019-03-05T01:15:46.532Z,24.35
2019-03-05T01:18:17.974Z,24.10
2019-03-05T01:20:49.433Z,22.73
2019-03-05T01:23:20.689Z,22.70
2019-03-05T01:25:52.122Z,23.47
2019-03-05T01:28:23.679Z,24.07
2019-03-05T01:30:56.608Z,23.57
2019-03-05T01:36:04.244Z,21.40
2019-03-05T01:38:37.117Z,24.02
2019-03-05T01:43:40.271Z,22.85
2019-03-05T01:46:12.075Z,24.80
2019-03-05T01:48:43.373Z,22.15
2019-03-05T01:51:15.135Z,22.30
2019-03-05T01:53:46.786Z,23.07
2019-03-05T01:56:18.443Z,22.22
2019-03-05T01:58:49.997Z,22.70
2019-03-05T02:01:21.754Z,24.47
2019-03-05T02:03:53.414Z,21.97
2019-03-05T02:06:24.921Z,21.48
2019-03-05T02:08:56.249Z,21.80
2019-03-05T02:11:27.514Z,22.05
2019-03-05T02:13:58.839Z,22.17
2019-03-05T02:16:30.105Z,21.00
2019-03-05T02:19:27.619Z,20.75
2019-03-05T02:21:59.290Z,20.55
2019-03-05T02:24:50.337Z,20.82
2019-03-05T02:27:45.798Z,20.92
2019-03-05T02:30:35.492Z,21.37
2019-03-05T02:33:10.016Z,19.48
2019-03-05T02:35:52.719Z,21.87
2019-03-05T02:41:02.186Z,20.32
2019-03-05T02:44:06.957Z,19.37
2019-03-05T02:46:47.666Z,19.55
2019-03-05T02:49:25.173Z,19.27
2019-03-05T02:52:17.641Z,19.20
2019-03-05T02:55:17.944Z,19.60
2019-03-05T02:57:48.280Z,19.65
2019-03-05T03:00:21.210Z,18.80
2019-03-05T03:02:54.259Z,19.30
2019-03-05T03:05:27.239Z,21.05
2019-03-05T03:10:29.256Z,18.40
2019-03-05T03:13:00.546Z,18.57
2019-03-05T03:15:31.834Z,17.45
2019-03-05T03:18:03.120Z,18.90
2019-03-05T03:20:34.412Z,17.60
2019-03-05T03:23:06.239Z,18.42
2019-03-05T03:25:37.439Z,19.17
2019-03-05T03:28:08.602Z,18.35
2019-03-05T03:30:39.869Z,17.52
2019-03-05T03:33:11.238Z,17.45
2019-03-05T03:35:42.892Z,19.02
2019-03-05T03:38:14.551Z,16.85
2019-03-05T03:40:46.632Z,17.85
2019-03-05T03:43:18.281Z,19.32
2019-03-05T03:45:49.887Z,18.15
2019-03-05T03:48:21.787Z,20.08
2019-03-05T03:50:53.444Z,17.77
2019-03-05T03:53:25.022Z,17.23
2019-03-05T03:55:56.654Z,19.10
2019-03-05T03:58:28.414Z,18.98
2019-03-05T04:01:00.072Z,17.57
2019-03-05T04:03:31.834Z,18.95
2019-03-05T04:06:03.480Z,20.08
2019-03-05T04:08:34.938Z,20.08
2019-03-05T04:11:06.237Z,20.17
2019-03-05T04:13:37.420Z,18.17
2019-03-05T04:16:08.721Z,17.37
2019-03-05T04:18:40.204Z,17.50
2019-03-05T04:21:11.559Z,18.55
2019-03-05T04:23:43.869Z,17.62
2019-03-05T04:26:15.172Z,16.32
2019-03-05T04:28:46.537Z,16.23
2019-03-05T04:31:18.608Z,16.20
2019-03-05T04:33:49.905Z,15.63
2019-03-05T04:36:21.177Z,15.23
2019-03-05T04:38:52.400Z,14.47
2019-03-05T04:41:23.778Z,15.50
2019-03-05T04:43:55.099Z,14.47
2019-03-05T04:46:34.126Z,13.45
2019-03-05T04:49:16.172Z,13.15
2019-03-05T04:51:49.269Z,13.62
2019-03-05T04:54:21.891Z,11.88
2019-03-05T04:56:53.098Z,13.08
2019-03-05T04:59:24.360Z,13.03
2019-03-05T05:01:55.892Z,12.30
2019-03-05T05:04:27.552Z,12.93
2019-03-05T05:06:59.207Z,12.98
2019-03-05T05:09:30.857Z,12.40
2019-03-05T05:12:02.621Z,11.68
2019-03-05T05:14:34.267Z,11.40
2019-03-05T05:17:06.027Z,11.00
2019-03-05T05:19:37.586Z,11.03
2019-03-05T05:22:09.241Z,10.48
2019-03-05T05:24:40.851Z,10.35
2019-03-05T05:27:12.243Z,11.83
2019-03-05T05:29:43.901Z,12.50
2019-03-05T05:32:15.582Z,10.72
2019-03-05T05:34:46.786Z,10.45
2019-03-05T05:37:17.999Z,9.98
2019-03-05T05:40:21.457Z,10.08
2019-03-05T05:42:54.024Z,11.18
2019-03-05T05:45:38.016Z,9.70
2019-03-05T05:48:09.465Z,10.45
2019-03-05T05:50:40.989Z,9.63
2019-03-05T05:53:12.280Z,9.20
2019-03-05T05:55:43.647Z,10.00
2019-03-05T05:58:14.874Z,9.35
2019-03-05T06:00:47.707Z,9.20
2019-03-05T06:05:49.763Z,8.03
2019-03-05T06:08:21.069Z,7.40
2019-03-05T06:10:53.097Z,7.53
2019-03-05T06:13:24.627Z,7.53
2019-03-05T06:15:55.912Z,7.80
2019-03-05T06:18:27.250Z,7.55
2019-03-05T06:20:58.504Z,7.62
2019-03-05T06:23:29.824Z,7.33
2019-03-05T06:26:01.392Z,7.58
2019-03-05T06:28:33.021Z,8.75
2019-03-05T06:31:04.171Z,7.22
2019-03-05T06:33:35.591Z,8.68
2019-03-05T06:36:06.927Z,8.10
2019-03-05T06:38:38.291Z,8.05
2019-03-05T06:41:10.589Z,7.37
2019-03-05T06:43:41.874Z,6.97
2019-03-05T06:46:13.453Z,6.83
2019-03-05T06:48:44.775Z,8.15
2019-03-05T06:51:17.160Z,7.75
2019-03-05T06:53:48.422Z,7.50
2019-03-05T06:56:19.678Z,7.62
2019-03-05T06:58:52.480Z,7.80
2019-03-05T07:01:25.804Z,8.35
2019-03-05T07:03:57.082Z,7.75
2019-03-05T07:06:49.356Z,8.28
2019-03-05T07:09:42.388Z,7.50
2019-03-05T07:12:19.775Z,8.08
2019-03-05T07:15:18.487Z,7.60
2019-03-05T07:18:01.867Z,7.92
2019-03-05T07:21:03.523Z,7.30
2019-03-05T07:23:47.068Z,7.50
2019-03-05T07:28:48.921Z,7.90
2019-03-05T07:31:20.232Z,6.90
2019-03-05T07:33:53.081Z,7.87
2019-03-05T07:36:24.424Z,8.60
2019-03-05T07:38:55.775Z,7.83
2019-03-05T07:41:27.106Z,8.00
2019-03-05T07:43:58.695Z,8.55
2019-03-05T07:46:30.080Z,8.93
2019-03-05T07:49:01.430Z,7.35
2019-03-05T07:51:32.965Z,10.10
2019-03-05T07:54:04.566Z,9.48
2019-03-05T07:56:36.339Z,9.88
2019-03-05T07:59:08.106Z,9.65
2019-03-05T08:01:39.542Z,8.53
2019-03-05T08:04:11.132Z,8.58
2019-03-05T08:06:43.462Z,9.88
2019-03-05T08:09:35.096Z,8.85
2019-03-05T08:12:30.923Z,8.55
2019-03-05T08:15:08.501Z,9.85
2019-03-05T08:17:40.070Z,9.63
2019-03-05T08:20:13.045Z,8.63
2019-03-05T08:22:44.805Z,9.38
2019-03-05T08:25:16.770Z,10.03
2019-03-05T08:27:50.677Z,8.70
2019-03-05T08:30:22.229Z,8.83
2019-03-05T08:32:53.926Z,8.85
2019-03-05T08:35:25.359Z,9.95
2019-03-05T08:37:56.812Z,9.70
2019-03-05T08:40:28.472Z,9.63
2019-03-05T08:42:59.799Z,11.05
2019-03-05T08:45:31.717Z,9.83
2019-03-05T08:48:03.038Z,8.90
2019-03-05T08:50:34.388Z,9.13
2019-03-05T08:53:07.486Z,8.70
2019-03-05T08:58:09.828Z,9.28
2019-03-05T09:00:41.512Z,10.78
2019-03-05T09:03:14.272Z,8.95
2019-03-05T09:05:46.344Z,8.08
2019-03-05T09:08:21.137Z,8.78
2019-03-05T09:10:53.273Z,8.68
2019-03-05T09:13:32.753Z,9.03
2019-03-05T09:15:57.975Z,8.90
2019-03-05T09:18:29.739Z,8.78
2019-03-05T09:21:01.612Z,8.80
2019-03-05T09:26:04.813Z,7.87
2019-03-05T09:28:36.110Z,9.33
2019-03-05T09:31:07.663Z,8.73
2019-03-05T09:33:39.071Z,9.18
2019-03-05T09:36:10.819Z,9.55
2019-03-05T09:38:42.477Z,8.53
2019-03-05T09:41:14.119Z,9.75
2019-03-05T09:43:45.790Z,8.60
2019-03-05T09:46:19.588Z,9.68
2019-03-05T09:48:50.939Z,10.68
2019-03-05T09:51:22.802Z,10.00
2019-03-05T09:56:28.261Z,10.38
2019-03-05T09:59:00.072Z,9.93
2019-03-05T10:01:32.714Z,9.78
2019-03-05T10:04:04.800Z,9.58
2019-03-05T10:06:36.531Z,9.25
2019-03-05T10:09:08.131Z,9.43
2019-03-05T10:14:11.700Z,9.03
2019-03-05T10:16:43.351Z,9.83
2019-03-05T10:19:15.111Z,9.35
2019-03-05T10:21:46.810Z,9.73
2019-03-05T10:24:18.222Z,9.35
2019-03-05T10:26:50.280Z,8.43
2019-03-05T10:29:21.940Z,10.30
2019-03-05T10:31:53.774Z,9.43
2019-03-05T10:34:25.163Z,9.35
2019-03-05T10:36:56.810Z,8.83
2019-03-05T10:39:30.829Z,9.80
2019-03-05T10:44:32.075Z,9.30
2019-03-05T10:47:03.726Z,9.25
2019-03-05T10:49:35.233Z,9.00
2019-03-05T10:52:10.026Z,9.43
2019-03-05T10:54:41.914Z,10.03
2019-03-05T10:57:13.549Z,8.43
2019-03-05T10:59:45.393Z,9.90
2019-03-05T11:02:17.351Z,9.48
2019-03-05T11:04:49.021Z,8.48
2019-03-05T11:07:20.366Z,9.73
2019-03-05T11:09:53.252Z,9.93
2019-03-05T11:12:25.113Z,8.45
2019-03-05T11:14:56.943Z,9.80
2019-03-05T11:17:28.431Z,8.90
2019-03-05T11:20:00.003Z,8.65
2019-03-05T11:22:31.668Z,8.73
2019-03-05T11:25:04.231Z,9.38
2019-03-05T11:27:37.268Z,8.75
2019-03-05T11:30:12.370Z,9.83
2019-03-05T11:32:44.201Z,8.90
2019-03-05T11:35:17.881Z,9.40
2019-03-05T11:37:49.566Z,8.30
2019-03-05T11:40:21.481Z,8.53
2019-03-05T11:42:53.066Z,9.23
2019-03-05T11:45:26.376Z,8.73
2019-03-05T11:47:57.714Z,8.68
2019-03-05T11:50:29.367Z,8.78
2019-03-05T11:53:00.718Z,9.00
2019-03-05T11:55:32.589Z,8.28
2019-03-05T11:58:04.288Z,8.20
2019-03-05T12:00:55.380Z,8.13
2019-03-05T12:03:27.007Z,7.90
2019-03-05T12:05:59.673Z,9.43
2019-03-05T12:08:31.344Z,8.48
2019-03-05T12:11:03.216Z,9.20
2019-03-05T12:13:35.296Z,8.28
2019-03-05T12:16:07.012Z,8.50
2019-03-05T12:18:39.094Z,9.70
2019-03-05T12:21:10.736Z,9.10
2019-03-05T12:23:46.674Z,8.53
2019-03-05T12:26:15.415Z,8.25
2019-03-05T12:28:47.174Z,8.65
2019-03-05T12:33:50.866Z,9.33
2019-03-05T12:36:22.759Z,10.30
2019-03-05T12:38:54.347Z,8.78
2019-03-05T12:41:25.732Z,9.08
2019-03-05T12:43:57.520Z,9.40
2019-03-05T12:46:28.837Z,9.55
2019-03-05T12:49:00.486Z,9.60
2019-03-05T12:51:32.462Z,9.73
2019-03-05T12:54:04.026Z,9.80
2019-03-05T12:56:35.764Z,8.78
2019-03-05T12:59:07.419Z,8.70
2019-03-05T13:01:38.859Z,8.35
2019-03-05T13:04:10.549Z,9.18
2019-03-05T13:06:42.126Z,8.63
2019-03-05T13:09:17.724Z,9.63
2019-03-05T13:11:50.962Z,9.08
2019-03-05T13:14:22.636Z,10.60
2019-03-05T13:16:55.218Z,9.23
2019-03-05T13:19:26.628Z,10.08
2019-03-05T13:21:58.370Z,9.45
2019-03-05T13:24:30.144Z,10.13
2019-03-05T13:27:01.993Z,9.80
2019-03-05T13:29:33.665Z,10.72
2019-03-05T13:32:05.225Z,12.03
2019-03-05T13:34:36.615Z,11.30
2019-03-05T13:37:08.007Z,12.47
2019-03-05T13:39:39.486Z,10.48
2019-03-05T13:42:10.919Z,10.48
2019-03-05T13:44:43.677Z,10.13
2019-03-05T13:47:15.443Z,9.73
2019-03-05T13:49:58.860Z,10.32
2019-03-05T13:52:50.392Z,9.58
2019-03-05T13:55:31.067Z,10.75
2019-03-05T13:58:33.229Z,10.80
2019-03-05T14:01:06.149Z,11.20
2019-03-05T14:03:40.649Z,10.80
2019-03-05T14:06:33.491Z,13.25
2019-03-05T14:09:13.521Z,10.93
2019-03-05T14:11:47.108Z,10.20
2019-03-05T14:14:26.761Z,10.95
2019-03-05T14:17:15.186Z,9.93
2019-03-05T14:19:47.008Z,10.10
2019-03-05T14:22:18.794Z,10.48
2019-03-05T14:24:58.252Z,10.10
2019-03-05T14:27:23.822Z,10.82
2019-03-05T14:29:55.579Z,12.07
2019-03-05T14:32:27.352Z,11.33
2019-03-05T14:35:00.942Z,9.90
2019-03-05T14:37:32.894Z,10.82
2019-03-05T14:40:22.868Z,11.15
2019-03-05T14:42:39.599Z,10.63
2019-03-05T14:45:20.472Z,10.50
2019-03-05T14:47:55.136Z,10.78
2019-03-05T14:50:26.541Z,11.38
2019-03-05T14:52:58.413Z,12.18
2019-03-05T14:55:30.173Z,11.97
2019-03-05T14:58:01.816Z,11.68
2019-03-05T15:00:33.569Z,13.60
2019-03-05T15:03:05.390Z,15.18
2019-03-05T15:05:37.185Z,17.02
2019-03-05T15:08:08.628Z,16.17
2019-03-05T15:10:40.125Z,16.27
2019-03-05T15:13:17.095Z,16.05
2019-03-05T15:15:45.161Z,15.68
2019-03-05T15:18:17.132Z,15.13
2019-03-05T15:20:48.887Z,16.45
2019-03-05T15:23:20.661Z,19.85
2019-03-05T15:25:52.384Z,21.00
2019-03-05T15:28:24.237Z,22.70
2019-03-05T15:30:55.949Z,22.27
2019-03-05T15:33:27.687Z,20.82
2019-03-05T15:35:59.507Z,20.27
2019-03-05T15:38:31.816Z,18.82
2019-03-05T15:41:03.486Z,17.60
2019-03-05T15:43:35.169Z,18.65
2019-03-05T15:46:06.729Z,18.60
2019-03-05T15:48:38.234Z,18.17
2019-03-05T15:51:09.621Z,19.73
2019-03-05T15:53:41.160Z,18.42
2019-03-05T15:56:12.569Z,19.62
2019-03-05T15:58:43.861Z,19.32
2019-03-05T16:01:22.054Z,18.07
2019-03-05T16:03:48.558Z,18.57
2019-03-05T16:06:20.270Z,18.07
2019-03-05T16:08:52.071Z,16.20
2019-03-05T16:11:23.636Z,18.30
2019-03-05T16:13:56.512Z,16.42
2019-03-05T16:16:28.672Z,15.90
2019-03-05T16:19:00.536Z,17.07
2019-03-05T16:21:32.390Z,15.68
2019-03-05T16:24:04.351Z,15.03
2019-03-05T16:26:36.119Z,16.02
2019-03-05T16:29:10.834Z,16.23
2019-03-05T16:31:51.214Z,16.55
2019-03-05T16:34:24.908Z,17.12
2019-03-05T16:39:41.016Z,18.15
2019-03-05T16:42:24.868Z,18.35
2019-03-05T16:45:14.754Z,18.30
2019-03-05T16:48:00.445Z,17.45
2019-03-05T16:50:42.936Z,19.35
2019-03-05T16:53:20.633Z,19.95
2019-03-05T16:56:00.080Z,18.98
2019-03-05T16:58:49.440Z,19.35
2019-03-05T17:01:28.465Z,17.90
2019-03-05T17:04:01.684Z,21.05
2019-03-05T17:06:51.961Z,16.30
2019-03-05T17:09:37.038Z,11.93
2019-03-05T17:12:08.687Z,12.73
2019-03-05T17:14:40.302Z,12.82
2019-03-05T17:17:11.919Z,14.20
2019-03-05T17:19:43.855Z,13.70
2019-03-05T17:22:15.407Z,11.80
2019-03-05T17:24:47.174Z,11.10
2019-03-05T17:27:18.814Z,9.50
2019-03-05T17:29:50.486Z,10.50
2019-03-05T17:32:23.072Z,11.03
2019-03-05T17:34:54.332Z,13.18
2019-03-05T17:37:25.616Z,18.15
2019-03-05T17:39:57.025Z,23.57
2019-03-05T17:42:28.328Z,30.15
2019-03-05T17:44:59.569Z,28.50
2019-03-05T17:47:31.251Z,29.07
2019-03-05T17:50:02.915Z,24.25
2019-03-05T17:52:34.984Z,14.58
2019-03-05T17:55:10.105Z,14.45
2019-03-05T17:57:42.381Z,10.63
2019-03-05T18:00:29.416Z,9.03
2019-03-05T18:03:01.272Z,8.23
2019-03-05T18:05:33.321Z,9.57
2019-03-05T18:08:04.982Z,9.58
2019-03-05T18:10:36.633Z,9.93
2019-03-05T18:13:08.291Z,10.58
2019-03-05T18:15:39.837Z,9.98
2019-03-05T18:18:11.397Z,8.85
2019-03-05T18:20:43.169Z,9.00
2019-03-05T18:23:14.922Z,8.98
2019-03-05T18:25:46.567Z,8.83
2019-03-05T18:28:18.122Z,9.08
2019-03-05T18:30:49.772Z,8.68
2019-03-05T18:33:22.560Z,9.03
2019-03-05T18:35:54.227Z,7.87
2019-03-05T18:38:26.079Z,7.65
2019-03-05T18:40:57.756Z,7.22
2019-03-05T18:43:29.401Z,6.97
2019-03-05T18:46:00.948Z,7.50
2019-03-05T18:48:32.805Z,6.08
2019-03-05T18:51:04.568Z,6.90
2019-03-05T18:53:35.806Z,7.55
2019-03-05T18:56:07.362Z,7.25
2019-03-05T18:58:39.022Z,7.15
2019-03-05T19:01:10.464Z,7.33
2019-03-05T19:03:41.800Z,6.97
2019-03-05T19:06:13.475Z,7.40
2019-03-05T19:08:45.129Z,7.62
2019-03-05T19:11:16.683Z,8.40
2019-03-05T19:13:49.977Z,7.58
2019-03-05T19:16:21.630Z,7.75
2019-03-05T19:18:53.218Z,8.73
2019-03-05T19:21:24.844Z,7.60
2019-03-05T19:23:56.912Z,7.95
2019-03-05T19:26:28.670Z,7.78
2019-03-05T19:29:00.223Z,7.65
2019-03-05T19:31:31.672Z,8.73
2019-03-05T19:34:03.427Z,8.40
2019-03-05T19:36:35.082Z,7.47
2019-03-05T19:39:06.954Z,8.38
2019-03-05T19:41:39.930Z,8.85
2019-03-05T19:44:11.490Z,8.60
2019-03-05T19:46:43.174Z,10.10
2019-03-05T19:49:15.104Z,9.55
2019-03-05T19:51:46.551Z,9.03
2019-03-05T19:54:19.137Z,10.60
2019-03-05T19:56:50.786Z,9.45
2019-03-05T19:59:22.571Z,8.90
2019-03-05T20:01:54.210Z,9.65
2019-03-05T20:04:27.601Z,9.20
2019-03-05T20:07:02.637Z,8.70
2019-03-05T20:09:34.289Z,8.98
2019-03-05T20:12:05.956Z,8.03
2019-03-05T20:14:37.603Z,7.75
2019-03-05T20:17:09.257Z,7.90
2019-03-05T20:19:40.819Z,7.55
2019-03-05T20:22:12.677Z,7.58
2019-03-05T20:24:44.465Z,8.20
2019-03-05T20:27:16.482Z,7.15
2019-03-05T20:29:47.845Z,7.45
2019-03-05T20:32:19.510Z,6.97
2019-03-05T20:34:51.054Z,7.70
2019-03-05T20:37:22.705Z,7.58
2019-03-05T20:39:54.372Z,6.58
2019-03-05T20:42:26.021Z,7.42
2019-03-05T20:44:57.581Z,8.23
2019-03-05T20:47:29.214Z,7.75
2019-03-05T20:50:00.483Z,7.70
2019-03-05T20:52:31.838Z,8.28
2019-03-05T20:55:04.204Z,7.30
2019-03-05T20:57:35.969Z,7.92
2019-03-05T21:00:10.692Z,8.15
2019-03-05T21:02:42.653Z,7.30
2019-03-05T21:05:14.313Z,7.67
2019-03-05T21:07:45.844Z,8.08
2019-03-05T21:10:18.236Z,8.30
2019-03-05T21:12:49.898Z,8.30
2019-03-05T21:15:21.544Z,7.30
2019-03-05T21:17:54.736Z,7.70
2019-03-05T21:20:25.971Z,8.33
2019-03-05T21:22:57.252Z,7.47
2019-03-05T21:25:29.613Z,8.38
2019-03-05T21:28:01.148Z,8.43
2019-03-05T21:30:32.812Z,9.08
2019-03-05T21:33:04.468Z,8.98
2019-03-05T21:35:36.126Z,10.45
2019-03-05T21:38:07.783Z,10.15
2019-03-05T21:40:39.435Z,10.20
2019-03-05T21:43:11.088Z,9.50
2019-03-05T21:45:48.370Z,9.58
2019-03-05T21:48:20.646Z,9.20
2019-03-05T21:50:52.410Z,8.53
2019-03-05T21:53:24.161Z,7.28
2019-03-05T21:55:55.828Z,8.50
2019-03-05T21:58:27.374Z,8.90
2019-03-05T22:00:59.131Z,8.33
2019-03-05T22:03:30.888Z,8.10
2019-03-05T22:06:02.442Z,8.83
2019-03-05T22:08:34.200Z,9.08
2019-03-05T22:11:05.858Z,9.28
2019-03-05T22:13:37.415Z,9.68
2019-03-05T22:16:08.976Z,9.03
2019-03-05T22:18:40.924Z,9.43
2019-03-05T22:21:12.176Z,9.58
2019-03-05T22:23:43.932Z,8.68
2019-03-05T22:26:15.587Z,8.28
2019-03-05T22:28:47.152Z,8.68
2019-03-05T22:31:18.697Z,8.83
2019-03-05T22:33:50.355Z,9.03
2019-03-05T22:36:22.212Z,9.73
2019-03-05T22:38:53.869Z,8.90
2019-03-05T22:41:27.072Z,8.70
2019-03-05T22:43:58.199Z,9.43
2019-03-05T22:46:29.958Z,9.60
2019-03-05T22:49:01.415Z,9.73
2019-03-05T22:51:33.065Z,8.68
2019-03-05T22:54:04.619Z,8.75
2019-03-05T22:56:36.276Z,8.45
2019-03-05T22:59:07.727Z,8.25
2019-03-05T23:01:39.487Z,8.35
2019-03-05T23:04:11.346Z,8.35
2019-03-05T23:06:43.309Z,9.20
2019-03-05T23:09:16.396Z,7.92
2019-03-05T23:11:48.054Z,10.20
2019-03-05T23:14:19.709Z,9.35
2019-03-05T23:16:51.570Z,8.25
2019-03-05T23:19:23.128Z,7.95
2019-03-05T23:21:54.883Z,8.90
2019-03-05T23:24:26.542Z,9.20
2019-03-05T23:27:00.760Z,8.93
2019-03-05T23:29:33.946Z,9.05
2019-03-05T23:32:05.809Z,9.13
2019-03-05T23:34:37.572Z,8.73
2019-03-05T23:37:09.242Z,8.90
2019-03-05T23:39:40.983Z,8.83
2019-03-05T23:42:12.643Z,8.68
2019-03-05T23:44:43.883Z,8.48
2019-03-05T23:47:15.432Z,8.53
2019-03-05T23:49:47.093Z,9.03
2019-03-05T23:52:19.059Z,8.73
2019-03-05T23:54:50.920Z,9.13
2019-03-05T23:57:22.466Z,8.38
2019-03-05T23:59:55.148Z,9.18
